sensor_id;sensor_type;location;lat;lon;timestamp;pressure;altitude;pressure_sealevel;temperature;humidity
63535;BME280;55128;50.230;18.944;2022-10-19T00:03:00;99240.41;;;14.07;81.93
63535;BME280;55128;50.230;18.944;2022-10-19T00:08:00;99241.75;;;14.15;81.60
63535;BME280;55128;50.230;18.944;2022-10-19T00:13:02;99228.28;;;14.17;81.88
63535;BME280;55128;50.230;18.944;2022-10-19T00:18:02;99236.72;;;14.27;81.34
63535;BME280;55128;50.230;18.944;2022-10-19T00:23:03;99232.16;;;14.29;81.62
63535;BME280;55128;50.230;18.944;2022-10-19T00:28:04;99234.06;;;14.27;81.34
63535;BME280;55128;50.230;18.944;2022-10-19T00:33:04;99229.09;;;14.36;81.16
63535;BME280;55128;50.230;18.944;2022-10-19T00:38:05;99227.28;;;14.37;81.09
63535;BME280;55128;50.230;18.944;2022-10-19T00:43:13;99224.75;;;14.34;81.46
63535;BME280;55128;50.230;18.944;2022-10-19T00:48:17;99228.31;;;14.34;81.34
63535;BME280;55128;50.230;18.944;2022-10-19T00:53:20;99230.09;;;14.34;81.53
63535;BME280;55128;50.230;18.944;2022-10-19T00:58:24;99218.03;;;14.27;81.99
63535;BME280;55128;50.230;18.944;2022-10-19T01:03:24;99208.91;;;14.31;81.58
63535;BME280;55128;50.230;18.944;2022-10-19T01:08:26;99201.75;;;14.31;81.49
63535;BME280;55128;50.230;18.944;2022-10-19T01:40:44;99179.75;;;14.26;81.37
63535;BME280;55128;50.230;18.944;2022-10-19T01:45:52;99178.38;;;14.19;81.77
63535;BME280;55128;50.230;18.944;2022-10-19T01:51:28;99180.94;;;14.20;81.54
63535;BME280;55128;50.230;18.944;2022-10-19T01:56:31;99184.00;;;14.30;81.26
63535;BME280;55128;50.230;18.944;2022-10-19T02:01:34;99179.84;;;14.25;81.71
63535;BME280;55128;50.230;18.944;2022-10-19T02:06:38;99184.38;;;14.23;81.78
63535;BME280;55128;50.230;18.944;2022-10-19T02:11:39;99177.34;;;14.22;81.90
63535;BME280;55128;50.230;18.944;2022-10-19T02:16:48;99182.03;;;14.16;82.02
63535;BME280;55128;50.230;18.944;2022-10-19T02:21:51;99177.03;;;14.10;82.33
63535;BME280;55128;50.230;18.944;2022-10-19T02:26:52;99178.53;;;13.98;82.87
63535;BME280;55128;50.230;18.944;2022-10-19T02:31:53;99166.75;;;14.03;82.80
63535;BME280;55128;50.230;18.944;2022-10-19T02:36:54;99153.06;;;14.09;82.79
63535;BME280;55128;50.230;18.944;2022-10-19T02:47:28;99169.31;;;14.22;82.03
63535;BME280;55128;50.230;18.944;2022-10-19T02:52:30;99158.72;;;14.20;82.00
63535;BME280;55128;50.230;18.944;2022-10-19T02:57:31;99162.34;;;14.19;81.83
63535;BME280;55128;50.230;18.944;2022-10-19T03:02:32;99169.63;;;13.98;82.42
63535;BME280;55128;50.230;18.944;2022-10-19T03:07:32;99168.47;;;13.86;82.68
63535;BME280;55128;50.230;18.944;2022-10-19T03:12:33;99167.34;;;13.73;83.21
63535;BME280;55128;50.230;18.944;2022-10-19T03:17:34;99165.41;;;13.76;82.57
63535;BME280;55128;50.230;18.944;2022-10-19T03:22:34;99166.78;;;13.66;82.47
63535;BME280;55128;50.230;18.944;2022-10-19T03:27:35;99163.50;;;13.61;82.95
63535;BME280;55128;50.230;18.944;2022-10-19T03:32:35;99162.16;;;13.52;82.96
63535;BME280;55128;50.230;18.944;2022-10-19T03:37:36;99155.56;;;13.42;82.98
63535;BME280;55128;50.230;18.944;2022-10-19T03:42:37;99163.69;;;13.39;83.52
63535;BME280;55128;50.230;18.944;2022-10-19T03:47:37;99154.47;;;13.27;83.37
63535;BME280;55128;50.230;18.944;2022-10-19T03:52:38;99159.94;;;13.05;83.38
63535;BME280;55128;50.230;18.944;2022-10-19T03:57:38;99165.34;;;12.84;83.64
63535;BME280;55128;50.230;18.944;2022-10-19T04:02:39;99160.44;;;12.75;83.28
63535;BME280;55128;50.230;18.944;2022-10-19T04:07:39;99160.81;;;12.87;83.43
63535;BME280;55128;50.230;18.944;2022-10-19T04:12:40;99163.97;;;12.95;83.06
63535;BME280;55128;50.230;18.944;2022-10-19T04:17:40;99167.78;;;12.89;83.88
63535;BME280;55128;50.230;18.944;2022-10-19T04:22:41;99160.31;;;12.78;84.08
63535;BME280;55128;50.230;18.944;2022-10-19T04:27:41;99163.16;;;12.74;84.25
63535;BME280;55128;50.230;18.944;2022-10-19T04:32:42;99166.19;;;12.66;83.47
63535;BME280;55128;50.230;18.944;2022-10-19T04:37:42;99169.88;;;12.63;84.34
63535;BME280;55128;50.230;18.944;2022-10-19T04:42:43;99164.91;;;12.56;83.24
63535;BME280;55128;50.230;18.944;2022-10-19T04:47:44;99153.94;;;12.43;83.37
63535;BME280;55128;50.230;18.944;2022-10-19T04:52:44;99155.59;;;12.25;84.05
63535;BME280;55128;50.230;18.944;2022-10-19T04:57:45;99157.75;;;12.17;82.88
63535;BME280;55128;50.230;18.944;2022-10-19T05:02:46;99144.31;;;11.99;82.87
63535;BME280;55128;50.230;18.944;2022-10-19T05:07:47;99157.31;;;11.85;82.68
63535;BME280;55128;50.230;18.944;2022-10-19T05:12:48;99151.53;;;11.75;82.01
63535;BME280;55128;50.230;18.944;2022-10-19T05:17:48;99149.63;;;11.57;81.32
63535;BME280;55128;50.230;18.944;2022-10-19T05:22:50;99142.81;;;11.50;81.83
63535;BME280;55128;50.230;18.944;2022-10-19T05:27:51;99134.84;;;11.50;82.46
63535;BME280;55128;50.230;18.944;2022-10-19T05:32:52;99134.53;;;11.57;82.54
63535;BME280;55128;50.230;18.944;2022-10-19T05:37:53;99132.56;;;11.62;82.85
63535;BME280;55128;50.230;18.944;2022-10-19T05:42:54;99137.69;;;11.87;82.27
63535;BME280;55128;50.230;18.944;2022-10-19T05:47:55;99152.91;;;12.45;83.60
63535;BME280;55128;50.230;18.944;2022-10-19T05:52:55;99160.31;;;13.16;82.68
63535;BME280;55128;50.230;18.944;2022-10-19T05:57:56;99156.63;;;13.38;80.36
63535;BME280;55128;50.230;18.944;2022-10-19T06:02:56;99163.69;;;13.20;79.35
63535;BME280;55128;50.230;18.944;2022-10-19T06:07:57;99169.16;;;12.98;80.09
63535;BME280;55128;50.230;18.944;2022-10-19T06:12:57;99171.47;;;12.87;81.07
63535;BME280;55128;50.230;18.944;2022-10-19T06:17:58;99171.84;;;12.98;80.75
63535;BME280;55128;50.230;18.944;2022-10-19T06:22:58;99177.81;;;13.03;81.09
63535;BME280;55128;50.230;18.944;2022-10-19T06:28:00;99176.72;;;13.07;81.16
63535;BME280;55128;50.230;18.944;2022-10-19T06:33:02;99180.13;;;13.11;80.92
63535;BME280;55128;50.230;18.944;2022-10-19T06:38:03;99186.75;;;13.40;80.81
63535;BME280;55128;50.230;18.944;2022-10-19T06:43:03;99189.84;;;13.50;80.25
63535;BME280;55128;50.230;18.944;2022-10-19T06:48:05;99196.19;;;13.47;79.54
63535;BME280;55128;50.230;18.944;2022-10-19T06:53:06;99197.41;;;13.40;79.69
63535;BME280;55128;50.230;18.944;2022-10-19T06:58:06;99207.50;;;13.52;79.37
63535;BME280;55128;50.230;18.944;2022-10-19T07:03:07;99202.06;;;13.36;79.40
63535;BME280;55128;50.230;18.944;2022-10-19T07:08:07;99203.69;;;13.39;79.06
63535;BME280;55128;50.230;18.944;2022-10-19T07:13:08;99219.25;;;13.29;79.01
63535;BME280;55128;50.230;18.944;2022-10-19T07:18:08;99219.56;;;13.42;78.69
63535;BME280;55128;50.230;18.944;2022-10-19T07:23:09;99228.91;;;13.32;78.97
63535;BME280;55128;50.230;18.944;2022-10-19T07:28:09;99227.63;;;13.40;78.42
63535;BME280;55128;50.230;18.944;2022-10-19T07:33:10;99222.09;;;13.63;77.81
63535;BME280;55128;50.230;18.944;2022-10-19T07:38:11;99221.97;;;13.83;77.35
63535;BME280;55128;50.230;18.944;2022-10-19T07:43:11;99212.91;;;14.05;76.37
63535;BME280;55128;50.230;18.944;2022-10-19T07:48:12;99217.75;;;14.49;76.56
63535;BME280;55128;50.230;18.944;2022-10-19T07:53:12;99210.00;;;16.21;68.96
63535;BME280;55128;50.230;18.944;2022-10-19T07:58:13;99222.44;;;14.78;69.23
63535;BME280;55128;50.230;18.944;2022-10-19T08:03:13;99215.91;;;14.16;70.90
63535;BME280;55128;50.230;18.944;2022-10-19T08:08:14;99230.59;;;13.53;70.49
63535;BME280;55128;50.230;18.944;2022-10-19T08:13:14;99233.56;;;13.27;71.50
63535;BME280;55128;50.230;18.944;2022-10-19T08:18:15;99229.19;;;13.26;69.86
63535;BME280;55128;50.230;18.944;2022-10-19T08:23:20;99225.81;;;15.15;65.23
63535;BME280;55128;50.230;18.944;2022-10-19T08:28:22;99229.69;;;14.76;63.52
63535;BME280;55128;50.230;18.944;2022-10-19T08:33:23;99228.16;;;18.68;54.08
63535;BME280;55128;50.230;18.944;2022-10-19T08:38:24;99230.13;;;16.73;55.65
63535;BME280;55128;50.230;18.944;2022-10-19T08:43:37;99225.22;;;15.58;58.25
63535;BME280;55128;50.230;18.944;2022-10-19T08:48:40;99223.44;;;14.93;59.70
63535;BME280;55128;50.230;18.944;2022-10-19T08:53:50;99227.78;;;14.78;59.38
63535;BME280;55128;50.230;18.944;2022-10-19T08:59:20;99223.06;;;14.68;59.14
63535;BME280;55128;50.230;18.944;2022-10-19T09:09:32;99240.09;;;16.40;52.93
63535;BME280;55128;50.230;18.944;2022-10-19T09:19:54;99254.94;;;15.69;56.47
63535;BME280;55128;50.230;18.944;2022-10-19T09:25:00;99260.69;;;15.46;56.62
63535;BME280;55128;50.230;18.944;2022-10-19T09:30:25;99251.88;;;16.38;55.91
63535;BME280;55128;50.230;18.944;2022-10-19T09:35:36;99252.94;;;16.05;54.08
63535;BME280;55128;50.230;18.944;2022-10-19T09:40:38;99257.59;;;15.85;54.38
63535;BME280;55128;50.230;18.944;2022-10-19T09:45:58;99261.28;;;15.35;53.80
63535;BME280;55128;50.230;18.944;2022-10-19T09:51:11;99262.72;;;14.58;55.07
63535;BME280;55128;50.230;18.944;2022-10-19T09:56:23;99255.81;;;14.36;55.53
63535;BME280;55128;50.230;18.944;2022-10-19T10:01:33;99261.56;;;13.92;57.42
63535;BME280;55128;50.230;18.944;2022-10-19T10:06:35;99266.31;;;14.05;58.17
63535;BME280;55128;50.230;18.944;2022-10-19T10:11:38;99273.38;;;14.06;57.41
63535;BME280;55128;50.230;18.944;2022-10-19T10:16:40;99264.34;;;13.91;58.10
63535;BME280;55128;50.230;18.944;2022-10-19T10:21:53;99258.09;;;13.90;58.33
63535;BME280;55128;50.230;18.944;2022-10-19T10:27:02;99248.00;;;13.79;58.73
63535;BME280;55128;50.230;18.944;2022-10-19T10:32:17;99248.44;;;13.70;58.75
63535;BME280;55128;50.230;18.944;2022-10-19T10:42:34;99254.00;;;13.47;57.42
63535;BME280;55128;50.230;18.944;2022-10-19T10:47:38;99243.97;;;13.88;56.93
63535;BME280;55128;50.230;18.944;2022-10-19T10:52:39;99245.53;;;14.29;56.26
63535;BME280;55128;50.230;18.944;2022-10-19T10:57:44;99249.25;;;14.07;55.53
63535;BME280;55128;50.230;18.944;2022-10-19T11:08:51;99242.81;;;13.94;56.75
63535;BME280;55128;50.230;18.944;2022-10-19T11:14:07;99244.38;;;13.98;56.29
63535;BME280;55128;50.230;18.944;2022-10-19T11:19:19;99253.03;;;14.03;56.69
63535;BME280;55128;50.230;18.944;2022-10-19T11:40:41;99228.47;;;14.66;55.43
63535;BME280;55128;50.230;18.944;2022-10-19T11:51:31;99220.38;;;14.68;53.42
63535;BME280;55128;50.230;18.944;2022-10-19T11:56:41;99215.59;;;14.57;52.26
63535;BME280;55128;50.230;18.944;2022-10-19T12:01:57;99214.72;;;14.04;52.24
63535;BME280;55128;50.230;18.944;2022-10-19T12:07:19;99223.75;;;14.02;52.62
63535;BME280;55128;50.230;18.944;2022-10-19T12:17:32;99210.00;;;14.09;54.51
63535;BME280;55128;50.230;18.944;2022-10-19T12:22:36;99213.56;;;14.10;54.70
63535;BME280;55128;50.230;18.944;2022-10-19T12:27:39;99202.47;;;14.17;54.38
63535;BME280;55128;50.230;18.944;2022-10-19T12:32:54;99195.06;;;14.40;54.43
63535;BME280;55128;50.230;18.944;2022-10-19T12:38:14;99197.75;;;14.40;53.47
63535;BME280;55128;50.230;18.944;2022-10-19T12:43:30;99206.63;;;14.23;54.25
63535;BME280;55128;50.230;18.944;2022-10-19T12:48:32;99197.66;;;14.24;54.09
63535;BME280;55128;50.230;18.944;2022-10-19T12:53:38;99199.50;;;14.06;54.80
63535;BME280;55128;50.230;18.944;2022-10-19T12:58:48;99204.72;;;13.90;55.00
63535;BME280;55128;50.230;18.944;2022-10-19T13:03:53;99205.03;;;13.84;54.98
63535;BME280;55128;50.230;18.944;2022-10-19T13:09:07;99197.81;;;13.86;55.48
63535;BME280;55128;50.230;18.944;2022-10-19T13:19:28;99208.59;;;14.02;55.77
63535;BME280;55128;50.230;18.944;2022-10-19T13:24:32;99209.00;;;14.12;55.22
63535;BME280;55128;50.230;18.944;2022-10-19T13:34:40;99206.22;;;13.96;55.79
63535;BME280;55128;50.230;18.944;2022-10-19T13:39:41;99216.03;;;13.95;55.46
63535;BME280;55128;50.230;18.944;2022-10-19T13:44:43;99220.47;;;13.96;56.37
63535;BME280;55128;50.230;18.944;2022-10-19T14:11:18;99202.84;;;13.75;57.85
63535;BME280;55128;50.230;18.944;2022-10-19T14:16:21;99209.09;;;13.74;57.84
63535;BME280;55128;50.230;18.944;2022-10-19T14:21:32;99216.06;;;13.40;58.47
63535;BME280;55128;50.230;18.944;2022-10-19T14:26:33;99220.47;;;13.22;59.51
63535;BME280;55128;50.230;18.944;2022-10-19T14:31:35;99222.84;;;13.09;60.01
63535;BME280;55128;50.230;18.944;2022-10-19T14:36:38;99213.19;;;13.07;59.84
63535;BME280;55128;50.230;18.944;2022-10-19T14:41:43;99208.66;;;12.90;60.15
63535;BME280;55128;50.230;18.944;2022-10-19T14:46:47;99214.59;;;12.76;61.32
63535;BME280;55128;50.230;18.944;2022-10-19T14:51:54;99212.59;;;12.81;61.04
63535;BME280;55128;50.230;18.944;2022-10-19T14:57:04;99211.41;;;12.68;61.81
63535;BME280;55128;50.230;18.944;2022-10-19T15:07:35;99208.72;;;12.49;61.48
63535;BME280;55128;50.230;18.944;2022-10-19T15:12:39;99206.78;;;12.52;61.61
63535;BME280;55128;50.230;18.944;2022-10-19T15:17:51;99210.53;;;12.48;61.71
63535;BME280;55128;50.230;18.944;2022-10-19T15:22:53;99214.03;;;12.28;62.37
63535;BME280;55128;50.230;18.944;2022-10-19T15:27:55;99221.91;;;12.11;63.02
63535;BME280;55128;50.230;18.944;2022-10-19T15:33:09;99221.03;;;11.88;63.82
63535;BME280;55128;50.230;18.944;2022-10-19T15:54:06;99242.34;;;11.20;66.70
63535;BME280;55128;50.230;18.944;2022-10-19T15:59:15;99247.13;;;11.11;65.57
63535;BME280;55128;50.230;18.944;2022-10-19T16:04:17;99256.56;;;10.96;66.90
63535;BME280;55128;50.230;18.944;2022-10-19T16:09:19;99251.47;;;10.89;66.02
63535;BME280;55128;50.230;18.944;2022-10-19T16:14:20;99259.88;;;10.77;66.39
63535;BME280;55128;50.230;18.944;2022-10-19T16:19:21;99265.44;;;10.71;66.65
63535;BME280;55128;50.230;18.944;2022-10-19T16:24:22;99285.97;;;10.66;66.96
63535;BME280;55128;50.230;18.944;2022-10-19T16:29:22;99275.28;;;10.67;66.77
63535;BME280;55128;50.230;18.944;2022-10-19T16:34:23;99282.97;;;10.75;66.95
63535;BME280;55128;50.230;18.944;2022-10-19T16:39:23;99277.56;;;10.78;67.18
63535;BME280;55128;50.230;18.944;2022-10-19T16:44:24;99290.28;;;10.94;67.90
63535;BME280;55128;50.230;18.944;2022-10-19T16:49:25;99288.34;;;10.99;68.22
63535;BME280;55128;50.230;18.944;2022-10-19T16:54:26;99293.66;;;10.99;68.40
63535;BME280;55128;50.230;18.944;2022-10-19T16:59:29;99290.59;;;11.09;67.97
63535;BME280;55128;50.230;18.944;2022-10-19T17:04:29;99309.00;;;11.14;67.94
63535;BME280;55128;50.230;18.944;2022-10-19T17:09:30;99308.63;;;11.25;67.67
63535;BME280;55128;50.230;18.944;2022-10-19T17:14:30;99312.78;;;11.32;67.82
63535;BME280;55128;50.230;18.944;2022-10-19T17:19:31;99313.59;;;11.34;67.88
63535;BME280;55128;50.230;18.944;2022-10-19T17:24:32;99322.38;;;11.36;67.32
63535;BME280;55128;50.230;18.944;2022-10-19T17:29:33;99318.72;;;11.39;67.71
63535;BME280;55128;50.230;18.944;2022-10-19T17:34:34;99323.94;;;11.42;67.30
63535;BME280;55128;50.230;18.944;2022-10-19T17:39:34;99337.53;;;11.34;67.44
63535;BME280;55128;50.230;18.944;2022-10-19T17:44:35;99337.66;;;11.29;67.82
63535;BME280;55128;50.230;18.944;2022-10-19T17:49:36;99349.34;;;11.25;67.83
63535;BME280;55128;50.230;18.944;2022-10-19T17:54:37;99348.44;;;11.26;68.20
63535;BME280;55128;50.230;18.944;2022-10-19T17:59:37;99353.34;;;11.37;68.00
63535;BME280;55128;50.230;18.944;2022-10-19T18:04:38;99351.66;;;11.35;67.75
63535;BME280;55128;50.230;18.944;2022-10-19T18:09:39;99353.47;;;11.34;67.93
63535;BME280;55128;50.230;18.944;2022-10-19T18:14:39;99354.69;;;11.49;67.72
63535;BME280;55128;50.230;18.944;2022-10-19T18:19:40;99366.75;;;11.58;67.81
63535;BME280;55128;50.230;18.944;2022-10-19T18:24:40;99358.84;;;11.56;67.79
63535;BME280;55128;50.230;18.944;2022-10-19T18:29:41;99363.28;;;11.56;67.50
63535;BME280;55128;50.230;18.944;2022-10-19T18:34:42;99370.69;;;11.47;67.69
63535;BME280;55128;50.230;18.944;2022-10-19T18:39:52;99369.59;;;11.53;68.24
63535;BME280;55128;50.230;18.944;2022-10-19T18:44:55;99355.03;;;11.40;68.07
63535;BME280;55128;50.230;18.944;2022-10-19T18:49:56;99372.88;;;11.36;67.99
63535;BME280;55128;50.230;18.944;2022-10-19T18:54:57;99375.69;;;11.32;68.03
63535;BME280;55128;50.230;18.944;2022-10-19T18:59:58;99371.38;;;11.29;68.21
63535;BME280;55128;50.230;18.944;2022-10-19T19:04:58;99382.25;;;11.23;67.84
63535;BME280;55128;50.230;18.944;2022-10-19T19:09:59;99389.06;;;11.05;68.64
63535;BME280;55128;50.230;18.944;2022-10-19T19:14:59;99380.72;;;11.16;67.99
63535;BME280;55128;50.230;18.944;2022-10-19T19:20:00;99392.75;;;11.01;68.19
63535;BME280;55128;50.230;18.944;2022-10-19T19:25:01;99394.38;;;11.05;67.61
63535;BME280;55128;50.230;18.944;2022-10-19T19:30:02;99393.41;;;10.82;68.66
63535;BME280;55128;50.230;18.944;2022-10-19T19:35:04;99400.91;;;10.69;68.40
63535;BME280;55128;50.230;18.944;2022-10-19T19:40:05;99408.31;;;10.60;68.96
63535;BME280;55128;50.230;18.944;2022-10-19T19:45:06;99408.03;;;10.42;69.49
63535;BME280;55128;50.230;18.944;2022-10-19T19:50:07;99412.56;;;10.39;69.65
63535;BME280;55128;50.230;18.944;2022-10-19T19:55:08;99418.22;;;10.26;69.71
63535;BME280;55128;50.230;18.944;2022-10-19T20:00:09;99427.16;;;10.24;70.52
63535;BME280;55128;50.230;18.944;2022-10-19T20:05:11;99430.88;;;10.18;71.01
63535;BME280;55128;50.230;18.944;2022-10-19T20:10:12;99434.25;;;10.23;71.22
63535;BME280;55128;50.230;18.944;2022-10-19T20:15:16;99432.25;;;10.30;71.07
63535;BME280;55128;50.230;18.944;2022-10-19T20:20:17;99437.81;;;10.22;70.94
63535;BME280;55128;50.230;18.944;2022-10-19T20:25:18;99442.25;;;10.22;71.20
63535;BME280;55128;50.230;18.944;2022-10-19T20:30:18;99446.94;;;10.14;71.08
63535;BME280;55128;50.230;18.944;2022-10-19T20:35:19;99453.75;;;9.92;71.05
63535;BME280;55128;50.230;18.944;2022-10-19T20:40:19;99450.94;;;9.69;71.48
63535;BME280;55128;50.230;18.944;2022-10-19T20:45:20;99431.06;;;9.52;71.98
63535;BME280;55128;50.230;18.944;2022-10-19T20:50:21;99437.88;;;9.30;72.58
63535;BME280;55128;50.230;18.944;2022-10-19T20:55:21;99442.72;;;9.14;73.04
63535;BME280;55128;50.230;18.944;2022-10-19T21:00:22;99444.06;;;8.98;74.06
63535;BME280;55128;50.230;18.944;2022-10-19T21:05:23;99447.00;;;8.85;73.83
63535;BME280;55128;50.230;18.944;2022-10-19T21:10:23;99449.28;;;8.65;74.00
63535;BME280;55128;50.230;18.944;2022-10-19T21:15:24;99448.78;;;8.50;74.38
63535;BME280;55128;50.230;18.944;2022-10-19T21:20:24;99450.09;;;8.29;74.47
63535;BME280;55128;50.230;18.944;2022-10-19T21:25:25;99445.06;;;8.18;74.21
63535;BME280;55128;50.230;18.944;2022-10-19T21:30:29;99447.97;;;8.06;74.22
63535;BME280;55128;50.230;18.944;2022-10-19T21:35:30;99454.09;;;8.08;74.12
63535;BME280;55128;50.230;18.944;2022-10-19T21:40:34;99442.06;;;7.95;74.48
63535;BME280;55128;50.230;18.944;2022-10-19T21:45:36;99449.31;;;7.87;74.55
63535;BME280;55128;50.230;18.944;2022-10-19T21:50:37;99445.22;;;7.70;74.76
63535;BME280;55128;50.230;18.944;2022-10-19T21:55:38;99449.91;;;7.57;75.04
63535;BME280;55128;50.230;18.944;2022-10-19T22:00:39;99446.63;;;7.45;75.41
63535;BME280;55128;50.230;18.944;2022-10-19T22:05:48;99447.03;;;7.25;74.73
63535;BME280;55128;50.230;18.944;2022-10-19T22:10:49;99439.44;;;7.08;75.07
63535;BME280;55128;50.230;18.944;2022-10-19T22:15:50;99451.97;;;6.95;74.57
63535;BME280;55128;50.230;18.944;2022-10-19T22:20:50;99454.81;;;6.84;74.76
63535;BME280;55128;50.230;18.944;2022-10-19T22:25:51;99451.59;;;6.67;74.49
63535;BME280;55128;50.230;18.944;2022-10-19T22:30:57;99451.88;;;6.48;74.41
63535;BME280;55128;50.230;18.944;2022-10-19T22:35:59;99460.03;;;6.33;74.54
63535;BME280;55128;50.230;18.944;2022-10-19T22:41:00;99452.34;;;6.17;75.25
63535;BME280;55128;50.230;18.944;2022-10-19T22:46:01;99454.31;;;6.03;75.08
63535;BME280;55128;50.230;18.944;2022-10-19T22:51:02;99452.72;;;5.88;75.14
63535;BME280;55128;50.230;18.944;2022-10-19T22:56:03;99454.69;;;5.72;74.97
63535;BME280;55128;50.230;18.944;2022-10-19T23:06:14;99470.75;;;5.51;75.55
63535;BME280;55128;50.230;18.944;2022-10-19T23:11:15;99471.81;;;5.36;75.41
63535;BME280;55128;50.230;18.944;2022-10-19T23:16:16;99468.41;;;5.28;75.21
63535;BME280;55128;50.230;18.944;2022-10-19T23:21:16;99471.16;;;5.14;75.16
63535;BME280;55128;50.230;18.944;2022-10-19T23:26:19;99482.66;;;5.05;75.33
63535;BME280;55128;50.230;18.944;2022-10-19T23:31:22;99482.75;;;4.96;75.82
63535;BME280;55128;50.230;18.944;2022-10-19T23:36:25;99488.03;;;4.93;76.64
63535;BME280;55128;50.230;18.944;2022-10-19T23:41:26;99486.41;;;4.81;76.44
63535;BME280;55128;50.230;18.944;2022-10-19T23:46:27;99488.22;;;4.71;75.65
63535;BME280;55128;50.230;18.944;2022-10-19T23:51:28;99495.28;;;4.63;75.34
63535;BME280;55128;50.230;18.944;2022-10-19T23:56:28;99496.28;;;4.48;76.21
